Fairfax, South Carolina
Current Conditions -  °F | °C
As of 10:35 AM on Monday 24 Nov 2014 (Local Time) from KAQX Reporting Station
Haze Haze  
Wind Chill: 70°   Ceiling: 400
Heat Index: 70°   Visibility: 5mi
Dew Point: 70°   Wind: 0mph
Humidity: 100%   Direction: NA
Pressure: 29.85"   Gusts: NA
Location:  32.96°N, 81.24°W
Report Text: KAQX 241535Z AUTO 00000KT 5SM BR BKN004 BKN008 OVC011 21/21 A2985 RMK AO2
Loading
Personal Weather Stations






























Interactive Weather Map New forecast layout! Learn more

10-Day Weather Forecast

Advertisements
Track Severe Weather on mobile